Time,TemperatureF,DewpointF,PressureIn,WindDirection,WindDirectionDegrees,WindSpeedMPH,WindSpeedGustMPH,Humidity,HourlyPrecipIn,Conditions,Clouds,dailyrainin,SoftwareType,DateUTC
2013-02-04 00:09:00,25.5,23.0,29.95,ESE,113,1.0,2.0,88,0.00,,,0.00,weatherlink.com 1.10,2013-02-04 07:09:00,
2013-02-04 00:24:00,25.0,22.0,29.95,SE,129,0.0,1.0,88,0.00,,,0.00,weatherlink.com 1.10,2013-02-04 07:24:00,
2013-02-04 00:39:00,24.9,22.0,29.95,SE,130,2.0,2.0,89,0.00,,,0.00,weatherlink.com 1.10,2013-02-04 07:39:00,
2013-02-04 00:54:00,24.2,21.0,29.95,South,187,2.0,2.0,88,0.00,,,0.00,weatherlink.com 1.10,2013-02-04 07:54:00,
2013-02-04 01:09:00,23.6,21.0,29.94,South,179,0.0,1.0,89,0.00,,,0.00,weatherlink.com 1.10,2013-02-04 08:09:00,
2013-02-04 01:24:00,23.7,21.0,29.93,NW,320,0.0,1.0,89,0.00,,,0.00,weatherlink.com 1.10,2013-02-04 08:24:00,
2013-02-04 01:39:00,23.0,21.0,29.92,WNW,293,0.0,1.0,91,0.00,,,0.00,weatherlink.com 1.10,2013-02-04 08:39:00,
2013-02-04 01:54:00,23.0,21.0,29.93,SSE,160,0.0,1.0,93,0.00,,,0.00,weatherlink.com 1.10,2013-02-04 08:54:00,
2013-02-04 02:09:00,23.9,22.0,29.92,SE,130,0.0,1.0,92,0.00,,,0.00,weatherlink.com 1.10,2013-02-04 09:09:00,
2013-02-04 02:24:00,22.9,20.0,29.92,ESE,117,1.0,2.0,88,0.00,,,0.00,weatherlink.com 1.10,2013-02-04 09:24:00,
2013-02-04 02:39:00,22.5,20.0,29.92,SE,134,0.0,2.0,90,0.00,,,0.00,weatherlink.com 1.10,2013-02-04 09:39:00,
2013-02-04 02:54:00,22.6,20.0,29.92,East,79,2.0,3.0,90,0.00,,,0.00,weatherlink.com 1.10,2013-02-04 09:54:00,
2013-02-04 03:09:00,22.7,20.0,29.92,SE,143,3.0,3.0,90,0.00,,,0.00,weatherlink.com 1.10,2013-02-04 10:09:00,
2013-02-04 03:24:00,24.2,22.0,29.90,West,262,1.0,3.0,91,0.00,,,0.00,weatherlink.com 1.10,2013-02-04 10:24:00,
2013-02-04 03:39:00,27.0,24.0,29.90,North,3,2.0,6.0,88,0.00,,,0.00,weatherlink.com 1.10,2013-02-04 10:39:00,
2013-02-04 03:54:00,28.8,25.0,29.90,West,273,0.0,7.0,84,0.00,,,0.00,weatherlink.com 1.10,2013-02-04 10:54:00,
2013-02-04 04:09:00,29.0,25.0,29.89,WSW,243,2.0,3.0,84,0.00,,,0.00,weatherlink.com 1.10,2013-02-04 11:09:00,
2013-02-04 04:24:00,30.7,25.0,29.89,West,271,5.0,10.0,80,0.00,,,0.00,weatherlink.com 1.10,2013-02-04 11:24:00,
2013-02-04 04:39:00,31.3,25.0,29.89,West,264,3.0,10.0,78,0.00,,,0.00,weatherlink.com 1.10,2013-02-04 11:39:00,
2013-02-04 04:54:00,32.0,25.0,29.90,NW,323,2.0,11.0,75,0.00,,,0.00,weatherlink.com 1.10,2013-02-04 11:54:00,
2013-02-04 05:09:00,32.2,25.0,29.89,SW,226,4.0,9.0,75,0.00,,,0.00,weatherlink.com 1.10,2013-02-04 12:09:00,
2013-02-04 05:24:00,32.3,25.0,29.89,WSW,240,3.0,5.0,75,0.00,,,0.00,weatherlink.com 1.10,2013-02-04 12:24:00,
2013-02-04 05:39:00,32.5,25.0,29.89,West,265,4.0,9.0,74,0.00,,,0.00,weatherlink.com 1.10,2013-02-04 12:39:00,
2013-02-04 05:55:00,32.7,25.0,29.89,West,261,8.0,10.0,72,0.00,,,0.00,weatherlink.com 1.10,2013-02-04 12:55:00,
2013-02-04 06:09:00,32.4,25.0,29.89,WSW,239,8.0,10.0,73,0.00,,,0.00,weatherlink.com 1.10,2013-02-04 13:09:00,
2013-02-04 06:24:00,32.4,25.0,29.89,WNW,288,6.0,11.0,73,0.00,,,0.00,weatherlink.com 1.10,2013-02-04 13:24:00,
2013-02-04 06:39:00,32.7,24.0,29.88,West,264,4.0,12.0,71,0.00,,,0.00,weatherlink.com 1.10,2013-02-04 13:39:00,
2013-02-04 06:54:00,32.7,24.0,29.88,WSW,246,4.0,12.0,71,0.00,,,0.00,weatherlink.com 1.10,2013-02-04 13:54:00,
2013-02-04 07:09:00,32.8,24.0,29.88,WSW,257,7.0,11.0,71,0.00,,,0.00,weatherlink.com 1.10,2013-02-04 14:09:00,
2013-02-04 07:24:00,32.6,24.0,29.87,WSW,243,8.0,8.0,71,0.00,,,0.00,weatherlink.com 1.10,2013-02-04 14:24:00,
2013-02-04 07:40:00,32.9,24.0,29.87,WSW,253,4.0,10.0,71,0.00,,,0.00,weatherlink.com 1.10,2013-02-04 14:40:00,
2013-02-04 07:55:00,33.1,24.0,29.88,WSW,248,5.0,8.0,70,0.00,,,0.00,weatherlink.com 1.10,2013-02-04 14:55:00,
2013-02-04 08:10:00,33.6,24.0,29.87,WSW,251,5.0,8.0,69,0.00,,,0.00,weatherlink.com 1.10,2013-02-04 15:10:00,
2013-02-04 08:25:00,34.3,24.0,29.88,West,269,5.0,11.0,67,0.00,,,0.00,weatherlink.com 1.10,2013-02-04 15:25:00,
2013-02-04 08:40:00,34.8,25.0,29.87,SW,226,9.0,11.0,67,0.00,,,0.00,weatherlink.com 1.10,2013-02-04 15:40:00,
2013-02-04 08:55:00,35.2,25.0,29.87,West,271,7.0,10.0,66,0.00,,,0.00,weatherlink.com 1.10,2013-02-04 15:55:00,
2013-02-04 09:10:00,35.6,25.0,29.87,West,263,4.0,9.0,66,0.00,,,0.00,weatherlink.com 1.10,2013-02-04 16:10:00,
2013-02-04 09:25:00,36.6,25.0,29.87,West,260,3.0,7.0,63,0.00,,,0.00,weatherlink.com 1.10,2013-02-04 16:25:00,
2013-02-04 09:40:00,37.2,25.0,29.86,West,268,4.0,8.0,62,0.00,,,0.00,weatherlink.com 1.10,2013-02-04 16:40:00,
2013-02-04 09:55:00,37.4,26.0,29.87,West,260,4.0,11.0,63,0.00,,,0.00,weatherlink.com 1.10,2013-02-04 16:55:00,
2013-02-04 10:10:00,38.3,26.0,29.87,West,271,3.0,11.0,62,0.00,,,0.00,weatherlink.com 1.10,2013-02-04 17:10:00,
2013-02-04 10:25:00,38.7,26.0,29.87,WNW,283,3.0,11.0,60,0.00,,,0.00,weatherlink.com 1.10,2013-02-04 17:25:00,
2013-02-04 10:40:00,39.7,26.0,29.86,WNW,285,6.0,12.0,58,0.00,,,0.00,weatherlink.com 1.10,2013-02-04 17:40:00,
2013-02-04 10:55:00,40.6,26.0,29.86,West,271,8.0,12.0,57,0.00,,,0.00,weatherlink.com 1.10,2013-02-04 17:55:00,
2013-02-04 11:10:00,41.1,26.0,29.86,WSW,257,11.0,15.0,55,0.00,,,0.00,weatherlink.com 1.10,2013-02-04 18:10:00,
2013-02-04 11:25:00,40.9,26.0,29.86,West,264,5.0,14.0,55,0.00,,,0.00,weatherlink.com 1.10,2013-02-04 18:25:00,
2013-02-04 11:40:00,41.1,25.0,29.85,WSW,246,6.0,13.0,54,0.00,,,0.00,weatherlink.com 1.10,2013-02-04 18:40:00,
2013-02-04 11:55:00,42.2,26.0,29.84,West,259,5.0,11.0,52,0.00,,,0.00,weatherlink.com 1.10,2013-02-04 18:55:00,
2013-02-04 12:10:00,43.2,26.0,29.84,SW,234,8.0,9.0,50,0.00,,,0.00,weatherlink.com 1.10,2013-02-04 19:10:00,
2013-02-04 12:25:00,44.1,25.0,29.84,WSW,248,7.0,11.0,48,0.00,,,0.00,weatherlink.com 1.10,2013-02-04 19:25:00,
2013-02-04 12:41:00,45.6,25.0,29.83,WSW,239,9.0,13.0,45,0.00,,,0.00,weatherlink.com 1.10,2013-02-04 19:41:00,
2013-02-04 12:56:00,47.6,24.0,29.82,WSW,243,13.0,16.0,40,0.00,,,0.00,weatherlink.com 1.10,2013-02-04 19:56:00,
2013-02-04 13:11:00,47.7,26.0,29.83,West,278,4.0,8.0,43,0.00,,,0.00,weatherlink.com 1.10,2013-02-04 20:11:00,
2013-02-04 13:26:00,50.6,24.0,29.82,WNW,300,23.0,32.0,36,0.00,,,0.00,weatherlink.com 1.10,2013-02-04 20:26:00,
2013-02-04 13:41:00,51.4,25.0,29.81,NW,313,21.0,28.0,36,0.00,,,0.00,weatherlink.com 1.10,2013-02-04 20:41:00,
2013-02-04 13:56:00,51.4,25.0,29.81,NW,304,12.0,27.0,36,0.00,,,0.00,weatherlink.com 1.10,2013-02-04 20:56:00,
2013-02-04 14:12:00,51.6,25.0,29.81,West,262,15.0,25.0,36,0.00,,,0.00,weatherlink.com 1.10,2013-02-04 21:12:00,
2013-02-04 14:25:00,51.6,25.0,29.81,WNW,300,8.0,20.0,36,0.00,,,0.00,weatherlink.com 1.10,2013-02-04 21:25:00,
2013-02-04 14:41:00,51.4,25.0,29.80,WNW,298,16.0,21.0,36,0.00,,,0.00,weatherlink.com 1.10,2013-02-04 21:41:00,
2013-02-04 14:56:00,51.3,24.0,29.80,WNW,291,9.0,20.0,35,0.00,,,0.00,weatherlink.com 1.10,2013-02-04 21:56:00,
2013-02-04 15:12:00,51.8,25.0,29.79,WNW,300,3.0,19.0,35,0.00,,,0.00,weatherlink.com 1.10,2013-02-04 22:12:00,
2013-02-04 15:27:00,51.3,25.0,29.79,WNW,288,8.0,16.0,36,0.00,,,0.00,weatherlink.com 1.10,2013-02-04 22:27:00,
2013-02-04 15:43:00,50.2,25.0,29.80,WNW,300,9.0,22.0,38,0.00,,,0.00,weatherlink.com 1.10,2013-02-04 22:43:00,
2013-02-04 15:57:00,49.7,25.0,29.80,WNW,296,19.0,27.0,39,0.00,,,0.00,weatherlink.com 1.10,2013-02-04 22:57:00,
2013-02-04 16:12:00,50.1,26.0,29.80,NW,306,23.0,33.0,39,0.00,,,0.00,weatherlink.com 1.10,2013-02-04 23:12:00,
2013-02-04 16:27:00,49.9,26.0,29.80,NW,306,19.0,31.0,39,0.00,,,0.00,weatherlink.com 1.10,2013-02-04 23:27:00,
2013-02-04 16:42:00,48.6,26.0,29.80,WNW,297,13.0,25.0,42,0.00,,,0.00,weatherlink.com 1.10,2013-02-04 23:42:00,
2013-02-04 16:57:00,47.6,26.0,29.80,West,278,14.0,20.0,44,0.00,,,0.00,weatherlink.com 1.10,2013-02-04 23:57:00,
2013-02-04 17:12:00,47.5,26.0,29.81,WNW,302,14.0,22.0,44,0.00,,,0.00,weatherlink.com 1.10,2013-02-05 00:12:00,
2013-02-04 17:27:00,47.0,26.0,29.81,WNW,293,10.0,18.0,45,0.00,,,0.00,weatherlink.com 1.10,2013-02-05 00:27:00,
2013-02-04 17:42:00,46.3,26.0,29.82,West,278,7.0,13.0,46,0.00,,,0.00,weatherlink.com 1.10,2013-02-05 00:42:00,
2013-02-04 17:57:00,45.9,27.0,29.83,West,262,5.0,12.0,47,0.00,,,0.00,weatherlink.com 1.10,2013-02-05 00:57:00,
2013-02-04 18:12:00,45.2,26.0,29.83,West,276,5.0,14.0,48,0.00,,,0.00,weatherlink.com 1.10,2013-02-05 01:12:00,
2013-02-04 18:27:00,45.7,27.0,29.84,WNW,298,6.0,15.0,48,0.00,,,0.00,weatherlink.com 1.10,2013-02-05 01:27:00,
2013-02-04 18:42:00,46.3,26.0,29.84,West,278,6.0,16.0,46,0.00,,,0.00,weatherlink.com 1.10,2013-02-05 01:42:00,
2013-02-04 18:57:00,46.3,27.0,29.84,WNW,294,5.0,14.0,47,0.00,,,0.00,weatherlink.com 1.10,2013-02-05 01:57:00,
2013-02-04 19:12:00,46.4,27.0,29.84,West,270,9.0,14.0,47,0.00,,,0.00,weatherlink.com 1.10,2013-02-05 02:12:00,
2013-02-04 19:27:00,46.5,27.0,29.85,NW,312,11.0,20.0,47,0.00,,,0.00,weatherlink.com 1.10,2013-02-05 02:27:00,
2013-02-04 19:43:00,46.9,26.0,29.85,NW,311,12.0,19.0,45,0.00,,,0.00,weatherlink.com 1.10,2013-02-05 02:43:00,
2013-02-04 19:58:00,47.0,26.0,29.85,NW,313,14.0,18.0,44,0.00,,,0.00,weatherlink.com 1.10,2013-02-05 02:58:00,
2013-02-04 20:13:00,46.5,26.0,29.86,NW,304,11.0,17.0,45,0.00,,,0.00,weatherlink.com 1.10,2013-02-05 03:13:00,
2013-02-04 20:28:00,46.6,25.0,29.86,NW,310,12.0,17.0,43,0.00,,,0.00,weatherlink.com 1.10,2013-02-05 03:28:00,
2013-02-04 20:43:00,46.3,25.0,29.87,WNW,303,11.0,18.0,44,0.00,,,0.00,weatherlink.com 1.10,2013-02-05 03:43:00,
2013-02-04 20:58:00,46.1,25.0,29.88,WNW,303,10.0,16.0,44,0.00,,,0.00,weatherlink.com 1.10,2013-02-05 03:58:00,
2013-02-04 21:13:00,45.8,25.0,29.89,NW,314,10.0,17.0,45,0.00,,,0.00,weatherlink.com 1.10,2013-02-05 04:13:00,
2013-02-04 21:28:00,45.2,25.0,29.89,WNW,298,12.0,12.0,46,0.00,,,0.00,weatherlink.com 1.10,2013-02-05 04:28:00,
2013-02-04 21:43:00,45.2,25.0,29.90,WNW,300,7.0,15.0,46,0.00,,,0.00,weatherlink.com 1.10,2013-02-05 04:43:00,
2013-02-04 21:58:00,44.9,25.0,29.90,WNW,285,4.0,11.0,46,0.00,,,0.00,weatherlink.com 1.10,2013-02-05 04:58:00,
2013-02-04 22:13:00,43.7,25.0,29.90,SW,226,2.0,5.0,49,0.00,,,0.00,weatherlink.com 1.10,2013-02-05 05:13:00,
2013-02-04 22:28:00,42.7,26.0,29.90,West,262,1.0,4.0,51,0.00,,,0.00,weatherlink.com 1.10,2013-02-05 05:28:00,
2013-02-04 22:43:00,41.8,26.0,29.90,WSW,252,0.0,1.0,53,0.00,,,0.00,weatherlink.com 1.10,2013-02-05 05:43:00,
2013-02-04 22:58:00,41.4,25.0,29.91,WSW,252,0.0,0.0,53,0.00,,,0.00,weatherlink.com 1.10,2013-02-05 05:58:00,
2013-02-04 23:13:00,41.5,25.0,29.91,East,89,1.0,2.0,53,0.00,,,0.00,weatherlink.com 1.10,2013-02-05 06:13:00,
2013-02-04 23:28:00,40.4,26.0,29.91,West,265,3.0,4.0,56,0.00,,,0.00,weatherlink.com 1.10,2013-02-05 06:28:00,
2013-02-04 23:58:00,39.8,26.0,29.92,South,174,3.0,3.0,57,0.00,,,0.00,weatherlink.com 1.10,2013-02-05 06:58:00,